createdAt,value
2023-05-10T00:01:49.107Z,2.15
2023-05-10T00:04:52.349Z,1.70
2023-05-10T00:07:55.182Z,2.00
2023-05-10T00:10:57.908Z,1.73
2023-05-10T00:14:00.749Z,2.10
2023-05-10T00:17:03.610Z,1.70
2023-05-10T00:20:07.012Z,1.80
2023-05-10T00:23:09.785Z,2.00
2023-05-10T00:26:13.171Z,1.73
2023-05-10T00:29:19.110Z,1.90
2023-05-10T00:32:21.988Z,2.08
2023-05-10T00:35:25.060Z,1.80
2023-05-10T00:38:27.921Z,1.75
2023-05-10T00:41:33.799Z,1.70
2023-05-10T00:44:38.511Z,1.80
2023-05-10T00:47:42.232Z,1.85
2023-05-10T00:50:45.794Z,1.70
2023-05-10T00:53:50.682Z,1.40
2023-05-10T00:56:53.515Z,1.48
2023-05-10T00:59:56.313Z,2.22
2023-05-10T01:02:59.460Z,1.60
2023-05-10T01:06:02.255Z,2.10
2023-05-10T01:09:05.072Z,1.83
2023-05-10T01:12:08.496Z,1.80
2023-05-10T01:15:12.492Z,1.52
2023-05-10T01:18:16.591Z,1.50
2023-05-10T01:21:31.200Z,1.67
2023-05-10T01:24:55.512Z,1.55
2023-05-10T01:28:21.478Z,1.80
2023-05-10T01:31:42.459Z,1.67
2023-05-10T01:34:57.662Z,1.80
2023-05-10T01:38:14.449Z,1.60
2023-05-10T01:41:48.493Z,1.98
2023-05-10T01:45:12.467Z,1.70
2023-05-10T01:48:16.236Z,1.63
2023-05-10T01:51:24.205Z,1.77
2023-05-10T01:54:30.048Z,1.50
2023-05-10T01:57:36.228Z,1.65
2023-05-10T02:00:43.824Z,1.88
2023-05-10T02:03:47.579Z,1.40
2023-05-10T02:06:52.609Z,1.55
2023-05-10T02:09:56.689Z,1.40
2023-05-10T02:13:01.294Z,1.90
2023-05-10T02:16:06.239Z,1.50
2023-05-10T02:19:11.455Z,1.50
2023-05-10T02:22:15.838Z,1.65
2023-05-10T02:25:20.330Z,1.63
2023-05-10T02:28:26.226Z,1.40
2023-05-10T02:31:29.200Z,1.50
2023-05-10T02:34:32.895Z,1.77
2023-05-10T02:37:38.526Z,1.65
2023-05-10T02:40:44.747Z,1.53
2023-05-10T02:43:48.773Z,1.60
2023-05-10T02:46:51.792Z,1.67
2023-05-10T02:49:54.696Z,1.70
2023-05-10T02:53:02.993Z,1.20
2023-05-10T02:56:09.366Z,2.00
2023-05-10T02:59:12.344Z,1.77
2023-05-10T03:02:15.140Z,1.88
2023-05-10T03:05:18.297Z,2.22
2023-05-10T03:08:21.131Z,1.90
2023-05-10T03:11:30.626Z,1.73
2023-05-10T03:15:14.192Z,1.58
2023-05-10T03:18:24.020Z,1.60
2023-05-10T03:21:31.030Z,1.50
2023-05-10T03:24:40.815Z,1.90
2023-05-10T03:27:45.311Z,1.60
2023-05-10T03:30:48.523Z,1.35
2023-05-10T03:33:52.956Z,1.25
2023-05-10T03:37:00.703Z,1.70
2023-05-10T03:40:08.197Z,1.73
2023-05-10T03:43:13.068Z,1.70
2023-05-10T03:46:15.820Z,1.30
2023-05-10T03:49:18.681Z,1.77
2023-05-10T03:52:21.844Z,1.52
2023-05-10T03:55:25.029Z,1.70
2023-05-10T03:58:28.482Z,1.50
2023-05-10T04:01:31.316Z,1.40
2023-05-10T04:04:33.965Z,1.92
2023-05-10T04:07:37.212Z,1.40
2023-05-10T04:10:40.887Z,1.70
2023-05-10T04:13:44.200Z,1.63
2023-05-10T04:16:46.958Z,1.65
2023-05-10T04:19:49.636Z,1.58
2023-05-10T04:22:52.505Z,1.45
2023-05-10T04:26:02.608Z,1.73
2023-05-10T04:29:06.861Z,1.47
2023-05-10T04:32:11.241Z,1.70
2023-05-10T04:35:15.980Z,1.80
2023-05-10T04:38:18.804Z,1.73
2023-05-10T04:41:21.856Z,1.38
2023-05-10T04:44:27.089Z,1.33
2023-05-10T04:47:33.730Z,1.60
2023-05-10T04:50:36.587Z,1.70
2023-05-10T04:53:39.666Z,1.33
2023-05-10T04:56:42.606Z,1.52
2023-05-10T04:59:45.390Z,1.53
2023-05-10T05:02:48.357Z,1.80
2023-05-10T05:05:51.198Z,1.65
2023-05-10T05:08:54.408Z,1.48
2023-05-10T05:11:57.082Z,1.65
2023-05-10T05:15:00.084Z,1.80
2023-05-10T05:18:02.906Z,1.48
2023-05-10T05:21:16.204Z,1.88
2023-05-10T05:24:18.933Z,1.30
2023-05-10T05:27:25.645Z,1.50
2023-05-10T05:30:28.670Z,1.57
2023-05-10T05:33:31.449Z,1.48
2023-05-10T05:36:39.318Z,1.92
2023-05-10T05:39:42.628Z,1.90
2023-05-10T05:42:45.377Z,2.10
2023-05-10T05:45:48.233Z,1.30
2023-05-10T05:48:50.938Z,1.40
2023-05-10T05:51:53.760Z,2.08
2023-05-10T05:54:56.464Z,2.67
2023-05-10T05:57:59.584Z,2.40
2023-05-10T06:01:02.479Z,2.00
2023-05-10T06:04:05.454Z,1.95
2023-05-10T06:07:08.199Z,1.70
2023-05-10T06:10:13.687Z,1.85
2023-05-10T06:13:16.664Z,1.90
2023-05-10T06:16:19.513Z,1.70
2023-05-10T06:19:22.294Z,2.10
2023-05-10T06:22:25.098Z,2.10
2023-05-10T06:25:27.818Z,2.00
2023-05-10T06:28:32.395Z,2.10
2023-05-10T06:31:35.209Z,1.90
2023-05-10T06:34:38.022Z,2.00
2023-05-10T06:37:40.810Z,1.85
2023-05-10T06:40:44.155Z,1.92
2023-05-10T06:43:47.103Z,1.98
2023-05-10T06:46:49.927Z,2.40
2023-05-10T06:49:52.760Z,2.08
2023-05-10T06:52:56.668Z,2.10
2023-05-10T06:56:19.290Z,1.58
2023-05-10T06:59:22.788Z,1.60
2023-05-10T07:02:25.612Z,1.60
2023-05-10T07:05:29.250Z,1.95
2023-05-10T07:08:32.949Z,2.15
2023-05-10T07:11:36.074Z,2.00
2023-05-10T07:14:38.861Z,1.92
2023-05-10T07:17:43.271Z,2.00
2023-05-10T07:20:47.767Z,1.80
2023-05-10T07:23:50.841Z,1.80
2023-05-10T07:26:53.500Z,1.95
2023-05-10T07:29:57.622Z,2.03
2023-05-10T07:33:00.390Z,1.93
2023-05-10T07:36:03.198Z,2.15
2023-05-10T07:39:06.463Z,2.20
2023-05-10T07:42:09.482Z,2.03
2023-05-10T07:45:12.179Z,2.65
2023-05-10T07:48:14.899Z,2.57
2023-05-10T07:51:17.704Z,2.38
2023-05-10T07:54:20.474Z,2.30
2023-05-10T07:57:24.304Z,2.85
2023-05-10T08:00:27.261Z,2.22
2023-05-10T08:03:30.142Z,3.30
2023-05-10T08:06:32.883Z,2.92
2023-05-10T08:09:35.613Z,2.95
2023-05-10T08:12:39.735Z,2.65
2023-05-10T08:15:42.512Z,3.13
2023-05-10T08:18:48.904Z,2.20
2023-05-10T08:21:52.123Z,2.70
2023-05-10T08:24:54.798Z,2.63
2023-05-10T08:27:57.564Z,2.50
2023-05-10T08:31:00.319Z,2.45
2023-05-10T08:34:03.180Z,2.97
2023-05-10T08:37:05.914Z,2.67
2023-05-10T08:40:12.260Z,2.40
2023-05-10T08:43:17.894Z,2.25
2023-05-10T08:46:21.802Z,2.63
2023-05-10T08:49:25.764Z,3.17
2023-05-10T08:52:33.581Z,2.83
2023-05-10T08:55:39.969Z,2.40
2023-05-10T08:58:42.808Z,2.88
2023-05-10T09:01:46.856Z,2.70
2023-05-10T09:04:50.422Z,2.63
2023-05-10T09:07:53.239Z,3.28
2023-05-10T09:10:56.586Z,2.70
2023-05-10T09:13:59.228Z,2.65
2023-05-10T09:17:02.470Z,2.90
2023-05-10T09:20:06.265Z,2.33
2023-05-10T09:23:09.429Z,2.50
2023-05-10T09:26:12.216Z,2.67
2023-05-10T09:29:17.341Z,2.33
2023-05-10T09:32:20.586Z,2.28
2023-05-10T09:35:29.479Z,2.70
2023-05-10T09:38:46.653Z,2.70
2023-05-10T09:41:49.579Z,3.03
2023-05-10T09:44:52.272Z,3.05
2023-05-10T09:47:55.546Z,3.00
2023-05-10T09:50:59.533Z,2.53
2023-05-10T09:54:11.906Z,2.90
2023-05-10T09:57:23.150Z,2.55
2023-05-10T10:00:25.957Z,2.88
2023-05-10T10:03:30.788Z,2.92
2023-05-10T10:06:38.549Z,3.00
2023-05-10T10:09:41.722Z,2.80
2023-05-10T10:12:45.703Z,2.65
2023-05-10T10:15:52.352Z,2.47
2023-05-10T10:18:56.807Z,2.55
2023-05-10T10:22:01.072Z,2.60
2023-05-10T10:25:06.599Z,3.00
2023-05-10T10:28:27.562Z,2.83
2023-05-10T10:31:41.843Z,3.08
2023-05-10T10:34:45.309Z,3.05
2023-05-10T10:37:52.025Z,2.50
2023-05-10T10:41:10.692Z,2.80
2023-05-10T10:44:31.943Z,2.45
2023-05-10T10:47:34.695Z,3.22
2023-05-10T10:50:49.593Z,2.60
2023-05-10T10:54:09.434Z,2.40
2023-05-10T10:57:14.748Z,2.60
2023-05-10T11:00:33.184Z,2.67
2023-05-10T11:03:35.888Z,2.90
2023-05-10T11:06:38.613Z,3.17
2023-05-10T11:09:41.676Z,2.40
2023-05-10T11:13:03.678Z,2.65
2023-05-10T11:16:22.858Z,2.67
2023-05-10T11:19:29.306Z,2.70
2023-05-10T11:22:52.092Z,2.53
2023-05-10T11:25:55.582Z,2.50
2023-05-10T11:28:59.727Z,2.05
2023-05-10T11:32:02.426Z,2.17
2023-05-10T11:35:09.604Z,2.33
2023-05-10T11:38:13.790Z,2.20
2023-05-10T11:41:18.870Z,2.33
2023-05-10T11:44:21.847Z,2.10
2023-05-10T11:47:24.664Z,2.53
2023-05-10T11:50:27.606Z,3.42
2023-05-10T11:53:34.132Z,2.72
2023-05-10T11:56:38.535Z,2.77
2023-05-10T11:59:43.075Z,3.00
2023-05-10T12:02:46.184Z,3.13
2023-05-10T12:05:49.027Z,2.22
2023-05-10T12:08:54.708Z,2.85
2023-05-10T12:12:00.746Z,2.73
2023-05-10T12:15:04.430Z,2.35
2023-05-10T12:18:09.377Z,2.33
2023-05-10T12:21:13.165Z,2.65
2023-05-10T12:24:18.990Z,2.60
2023-05-10T12:27:43.130Z,2.60
2023-05-10T12:30:46.074Z,2.38
2023-05-10T12:33:50.407Z,2.63
2023-05-10T12:36:54.156Z,2.50
2023-05-10T12:39:56.880Z,2.83
2023-05-10T12:42:59.656Z,2.47
2023-05-10T12:46:13.158Z,1.95
2023-05-10T12:49:16.010Z,2.22
2023-05-10T12:52:18.645Z,2.03
2023-05-10T12:55:21.361Z,2.33
2023-05-10T12:58:35.047Z,2.77
2023-05-10T13:01:39.002Z,2.13
2023-05-10T13:04:43.011Z,2.50
2023-05-10T13:07:45.672Z,2.00
2023-05-10T13:10:48.343Z,2.25
2023-05-10T13:13:51.040Z,2.27
2023-05-10T13:16:53.766Z,2.10
2023-05-10T13:19:56.426Z,2.22
2023-05-10T13:22:59.207Z,2.50
2023-05-10T13:26:05.108Z,1.75
2023-05-10T13:29:08.214Z,2.33
2023-05-10T13:32:11.549Z,2.17
2023-05-10T13:35:17.057Z,2.10
2023-05-10T13:38:22.239Z,2.50
2023-05-10T13:41:25.138Z,2.42
2023-05-10T13:44:28.022Z,1.93
2023-05-10T13:47:31.325Z,1.83
2023-05-10T13:50:33.960Z,2.47
2023-05-10T13:53:36.574Z,2.28
2023-05-10T13:56:39.335Z,2.55
2023-05-10T13:59:41.925Z,1.90
2023-05-10T14:02:45.153Z,2.30
2023-05-10T14:05:53.415Z,2.28
2023-05-10T14:08:56.287Z,2.47
2023-05-10T14:11:59.858Z,2.20
2023-05-10T14:15:03.422Z,1.90
2023-05-10T14:18:06.154Z,2.08
2023-05-10T14:21:08.880Z,2.05
2023-05-10T14:24:11.676Z,2.10
2023-05-10T14:27:14.283Z,2.00
2023-05-10T14:30:17.092Z,2.10
2023-05-10T14:33:20.298Z,2.17
2023-05-10T14:36:23.651Z,1.88
2023-05-10T14:39:26.433Z,2.17
2023-05-10T14:42:29.556Z,2.08
2023-05-10T14:45:32.338Z,2.00
2023-05-10T14:48:35.018Z,1.98
2023-05-10T14:51:38.017Z,2.05
2023-05-10T14:54:41.333Z,2.00
2023-05-10T14:57:45.170Z,1.90
2023-05-10T15:00:48.052Z,1.70
2023-05-10T15:03:51.804Z,1.80
2023-05-10T15:07:00.271Z,1.80
2023-05-10T15:10:03.575Z,1.75
2023-05-10T15:13:06.237Z,1.98
2023-05-10T15:16:08.930Z,1.87
2023-05-10T15:19:11.586Z,1.70
2023-05-10T15:22:14.238Z,2.00
2023-05-10T15:25:17.220Z,2.10
2023-05-10T15:28:20.045Z,2.13
2023-05-10T15:31:22.876Z,1.80
2023-05-10T15:34:25.561Z,1.65
2023-05-10T15:37:28.550Z,2.08
2023-05-10T15:40:31.220Z,1.67
2023-05-10T15:43:37.524Z,2.00
2023-05-10T15:46:41.101Z,1.70
2023-05-10T15:49:43.900Z,1.60
2023-05-10T15:52:46.840Z,1.77
2023-05-10T15:55:49.577Z,1.95
2023-05-10T15:58:52.328Z,1.70
2023-05-10T16:01:55.421Z,1.80
2023-05-10T16:04:58.393Z,2.38
2023-05-10T16:08:01.929Z,1.83
2023-05-10T16:11:04.752Z,1.65
2023-05-10T16:14:07.554Z,1.80
2023-05-10T16:17:10.294Z,2.00
2023-05-10T16:20:13.071Z,1.70
2023-05-10T16:23:15.951Z,1.92
2023-05-10T16:26:18.563Z,1.50
2023-05-10T16:29:21.253Z,1.60
2023-05-10T16:32:24.021Z,1.97
2023-05-10T16:35:31.190Z,1.95
2023-05-10T16:38:35.152Z,2.20
2023-05-10T16:41:37.882Z,1.67
2023-05-10T16:44:40.608Z,1.45
2023-05-10T16:47:43.335Z,1.47
2023-05-10T16:50:46.162Z,1.42
2023-05-10T16:53:48.818Z,1.73
2023-05-10T16:56:51.461Z,1.85
2023-05-10T16:59:54.211Z,1.80
2023-05-10T17:02:57.168Z,1.90
2023-05-10T17:06:00.085Z,1.90
2023-05-10T17:09:04.082Z,1.70
2023-05-10T17:12:06.805Z,2.28
2023-05-10T17:15:10.135Z,1.85
2023-05-10T17:18:13.162Z,1.50
2023-05-10T17:21:16.772Z,1.92
2023-05-10T17:24:19.485Z,1.80
2023-05-10T17:27:22.135Z,1.63
2023-05-10T17:30:27.680Z,1.85
2023-05-10T17:33:30.351Z,1.80
2023-05-10T17:36:33.633Z,2.00
2023-05-10T17:39:37.541Z,1.63
2023-05-10T17:42:42.229Z,1.80
2023-05-10T17:45:49.769Z,2.00
2023-05-10T17:48:52.466Z,1.73
2023-05-10T17:51:55.231Z,1.70
2023-05-10T17:54:58.179Z,1.98
2023-05-10T17:58:01.140Z,1.60
2023-05-10T18:01:04.570Z,1.75
2023-05-10T18:04:08.090Z,1.40
2023-05-10T18:07:10.868Z,1.80
2023-05-10T18:10:13.675Z,1.77
2023-05-10T18:13:16.980Z,1.90
2023-05-10T18:16:19.878Z,1.80
2023-05-10T18:19:25.226Z,1.80
2023-05-10T18:22:28.345Z,1.83
2023-05-10T18:25:31.540Z,1.80
2023-05-10T18:28:34.522Z,1.65
2023-05-10T18:31:38.383Z,2.10
2023-05-10T18:34:41.985Z,1.83
2023-05-10T18:37:45.680Z,1.50
2023-05-10T18:40:49.405Z,2.30
2023-05-10T18:43:53.988Z,1.90
2023-05-10T18:46:59.387Z,1.77
2023-05-10T18:50:05.417Z,1.80
2023-05-10T18:53:09.184Z,1.80
2023-05-10T18:56:12.971Z,1.70
2023-05-10T18:59:17.189Z,1.95
2023-05-10T19:02:21.682Z,2.00
2023-05-10T19:05:30.517Z,1.70
2023-05-10T19:08:35.755Z,1.80
2023-05-10T19:11:40.969Z,1.60
2023-05-10T19:14:45.163Z,2.03
2023-05-10T19:17:51.809Z,1.80
2023-05-10T19:20:56.897Z,1.60
2023-05-10T19:24:03.007Z,2.13
2023-05-10T19:27:07.586Z,2.40
2023-05-10T19:30:15.088Z,1.80
2023-05-10T19:33:19.732Z,1.90
2023-05-10T19:36:23.429Z,1.80
2023-05-10T19:39:27.572Z,2.20
2023-05-10T19:42:31.253Z,1.83
2023-05-10T19:45:37.408Z,1.90
2023-05-10T19:48:41.050Z,2.00
2023-05-10T19:51:44.711Z,1.90
2023-05-10T19:54:49.775Z,1.70
2023-05-10T19:57:53.320Z,1.90
2023-05-10T20:00:56.808Z,1.67
2023-05-10T20:04:00.341Z,2.00
2023-05-10T20:07:04.096Z,1.60
2023-05-10T20:10:08.722Z,2.00
2023-05-10T20:13:11.858Z,1.80
2023-05-10T20:16:15.293Z,1.80
2023-05-10T20:19:19.410Z,1.45
2023-05-10T20:22:22.420Z,1.90
2023-05-10T20:25:25.713Z,1.80
2023-05-10T20:28:29.795Z,1.80
2023-05-10T20:31:33.431Z,1.90
2023-05-10T20:34:37.325Z,1.75
2023-05-10T20:37:41.215Z,1.70
2023-05-10T20:40:45.151Z,1.65
2023-05-10T20:43:49.139Z,2.25
2023-05-10T20:46:53.499Z,1.58
2023-05-10T20:49:56.914Z,1.80
2023-05-10T20:53:01.187Z,1.63
2023-05-10T20:56:03.955Z,1.77
2023-05-10T20:59:06.642Z,1.98
2023-05-10T21:02:12.565Z,1.75
2023-05-10T21:05:17.247Z,1.73
2023-05-10T21:08:20.008Z,1.77
2023-05-10T21:11:22.839Z,1.80
2023-05-10T21:14:26.063Z,1.88
2023-05-10T21:17:28.825Z,1.77
2023-05-10T21:20:31.717Z,1.70
2023-05-10T21:23:34.750Z,1.90
2023-05-10T21:26:37.545Z,2.08
2023-05-10T21:29:40.267Z,1.90
2023-05-10T21:32:43.002Z,1.60
2023-05-10T21:35:45.947Z,1.60
2023-05-10T21:38:50.651Z,1.47
2023-05-10T21:41:53.356Z,1.80
2023-05-10T21:44:56.471Z,1.77
2023-05-10T21:48:00.107Z,1.83
2023-05-10T21:51:02.860Z,1.85
2023-05-10T21:54:05.595Z,1.67
2023-05-10T21:57:08.344Z,1.75
2023-05-10T22:00:11.624Z,1.70
2023-05-10T22:03:15.630Z,1.77
2023-05-10T22:06:18.331Z,1.90
2023-05-10T22:09:24.429Z,1.53
2023-05-10T22:12:27.329Z,2.10
2023-05-10T22:15:33.608Z,1.80
2023-05-10T22:18:37.841Z,1.60
2023-05-10T22:21:40.676Z,1.88
2023-05-10T22:24:43.354Z,1.80
2023-05-10T22:27:46.124Z,1.80
2023-05-10T22:30:48.915Z,1.52
2023-05-10T22:33:51.702Z,1.50
2023-05-10T22:36:54.543Z,2.03
2023-05-10T22:39:57.286Z,1.50
2023-05-10T22:42:59.989Z,1.70
2023-05-10T22:46:02.697Z,1.75
2023-05-10T22:49:06.443Z,1.40
2023-05-10T22:52:09.871Z,1.92
2023-05-10T22:55:12.628Z,2.40
2023-05-10T22:58:15.344Z,1.70
2023-05-10T23:01:18.101Z,1.65
2023-05-10T23:04:20.963Z,1.75
2023-05-10T23:07:24.170Z,1.67
2023-05-10T23:10:26.986Z,1.63
2023-05-10T23:13:32.449Z,1.52
2023-05-10T23:16:35.123Z,1.77
2023-05-10T23:19:38.103Z,1.70
2023-05-10T23:22:40.817Z,1.80
2023-05-10T23:25:43.561Z,1.40
2023-05-10T23:28:46.263Z,1.60
2023-05-10T23:31:49.547Z,1.40
2023-05-10T23:34:52.276Z,1.40
2023-05-10T23:38:00.643Z,1.70
2023-05-10T23:41:04.188Z,1.47
2023-05-10T23:44:06.937Z,1.60
2023-05-10T23:47:09.615Z,1.40
2023-05-10T23:50:12.379Z,1.70
2023-05-10T23:53:15.220Z,1.52
2023-05-10T23:56:18.044Z,1.80
2023-05-10T23:59:20.790Z,1.52
